Time;durP1;ratioP1;P1;durP2;ratioP2;P2;SDS_P1;SDS_P2;PMS_P1;PMS_P2;Temp;Humidity;BMP_temperature;BMP_pressure;BME280_temperature;BME280_humidity;BME280_pressure;Samples;Min_cycle;Max_cycle;Signal;HPM_P1;HPM_P2
2023/01/31 00:00:27;;;;;;;5.93;3.45;;;;;;;3.02;65.90;99042.47;5108175;28;20062;-74
2023/01/31 00:02:53;;;;;;;3.60;3.00;;;;;;;2.98;66.37;99046.94;5108041;28;20074;-74
2023/01/31 00:05:20;;;;;;;4.82;3.10;;;;;;;2.96;66.70;99037.44;5108271;28;20056;-73
2023/01/31 00:07:47;;;;;;;4.32;3.03;;;;;;;2.94;66.88;99045.31;5106952;28;20051;-74
2023/01/31 00:10:14;;;;;;;4.30;3.15;;;;;;;2.93;67.11;99059.31;5107819;28;20040;-74
2023/01/31 00:12:41;;;;;;;3.67;2.83;;;;;;;2.93;67.04;99051.47;5107885;28;20216;-74
2023/01/31 00:15:08;;;;;;;6.13;3.45;;;;;;;2.93;67.23;99053.22;5108137;28;20047;-73
2023/01/31 00:17:37;;;;;;;5.93;3.03;;;;;;;2.91;67.33;99063.75;5107496;28;20054;-74
2023/01/31 00:20:04;;;;;;;4.72;3.00;;;;;;;2.93;67.31;99050.59;5106672;28;20050;-74
2023/01/31 00:22:31;;;;;;;3.20;2.90;;;;;;;2.90;67.38;99046.31;5107732;28;20036;-74
2023/01/31 00:24:57;;;;;;;5.03;3.03;;;;;;;2.92;67.35;99056.75;5107047;28;20195;-74
2023/01/31 00:27:24;;;;;;;3.47;2.67;;;;;;;2.92;67.52;99054.97;5106508;28;20087;-74
2023/01/31 00:29:51;;;;;;;3.30;2.80;;;;;;;2.94;67.67;99057.56;5107644;28;20043;-73
2023/01/31 00:32:18;;;;;;;5.15;3.00;;;;;;;2.92;67.63;99072.44;5106385;28;20036;-73
2023/01/31 00:34:46;;;;;;;5.30;3.50;;;;;;;2.91;67.56;99068.13;5107183;28;20047;-74
2023/01/31 00:37:13;;;;;;;4.15;3.38;;;;;;;2.92;67.40;99049.75;5107618;28;20044;-74
2023/01/31 00:39:39;;;;;;;5.07;3.80;;;;;;;2.92;67.68;99047.13;5107662;28;20050;-74
2023/01/31 00:42:06;;;;;;;4.80;3.72;;;;;;;2.92;67.63;99044.50;5106182;28;20040;-73
2023/01/31 00:44:33;;;;;;;4.28;3.40;;;;;;;2.94;67.53;99049.69;5107522;28;20036;-74
2023/01/31 00:47:00;;;;;;;4.53;3.70;;;;;;;2.93;67.66;99051.47;5106142;28;20039;-73
2023/01/31 00:49:27;;;;;;;5.38;3.60;;;;;;;2.92;67.74;99046.28;5107547;28;20054;-74
2023/01/31 00:51:55;;;;;;;5.30;3.60;;;;;;;2.92;67.62;99043.66;5106095;28;20055;-74
2023/01/31 00:54:22;;;;;;;4.25;3.50;;;;;;;2.92;67.64;99070.69;5107144;28;20093;-74
2023/01/31 00:56:49;;;;;;;6.13;3.88;;;;;;;2.92;67.63;99065.44;5105941;28;20047;-74
2023/01/31 00:59:15;;;;;;;4.50;3.67;;;;;;;2.91;67.58;99063.75;5107024;28;20097;-73
2023/01/31 01:01:42;;;;;;;5.55;3.95;;;;;;;2.06;67.46;98922.28;5105869;28;20044;-74
2023/01/31 01:04:09;;;;;;;6.00;4.30;;;;;;;2.77;67.52;99045.81;5106405;28;20119;-74
2023/01/31 01:06:40;;;;;;;6.40;4.22;;;;;;;2.91;67.50;99079.44;5105693;28;20216;-74
2023/01/31 01:09:08;;;;;;;4.97;4.05;;;;;;;2.93;67.38;99071.53;5106889;28;20054;-73
2023/01/31 01:11:35;;;;;;;5.20;3.92;;;;;;;2.94;67.35;99076.75;5106065;28;20253;-74
2023/01/31 01:14:02;;;;;;;6.35;3.65;;;;;;;2.95;67.14;99070.59;5107039;28;20059;-74
2023/01/31 01:16:32;;;;;;;5.72;4.13;;;;;;;2.95;67.34;99061.88;5106694;28;20044;-74
2023/01/31 01:19:00;;;;;;;5.47;3.78;;;;;;;2.95;67.26;99067.97;5106685;28;20055;-74
2023/01/31 01:21:29;;;;;;;7.05;3.70;;;;;;;2.97;67.06;99060.09;5106341;28;20048;-74
2023/01/31 01:23:58;;;;;;;5.90;3.22;;;;;;;2.96;66.96;99059.22;5106881;28;20047;-73
2023/01/31 01:26:29;;;;;;;6.45;3.97;;;;;;;2.95;66.88;99061.88;5106162;28;20040;-74
2023/01/31 01:28:57;;;;;;;3.67;2.78;;;;;;;2.97;66.91;99065.31;5106814;28;20048;-73
2023/01/31 01:31:28;;;;;;;4.57;3.47;;;;;;;2.97;66.80;99071.41;5106168;28;20036;-73
2023/01/31 01:33:58;;;;;;;4.70;3.67;;;;;;;2.97;66.92;99062.69;5105279;28;20085;-73
2023/01/31 01:36:25;;;;;;;4.63;3.17;;;;;;;2.95;66.71;99054.91;5106125;28;20031;-73
2023/01/31 01:38:52;;;;;;;4.32;2.85;;;;;;;2.96;66.82;99058.38;5106041;28;20085;-73
2023/01/31 01:41:20;;;;;;;5.55;3.63;;;;;;;2.93;66.81;99053.22;5106289;28;20288;-73
2023/01/31 01:43:50;;;;;;;6.28;4.15;;;;;;;2.92;66.75;99033.19;5105244;28;20069;-73
2023/01/31 01:46:22;;;;;;;5.68;3.83;;;;;;;2.91;66.89;99060.25;5106432;28;20040;-73
2023/01/31 01:48:53;;;;;;;4.50;3.67;;;;;;;2.91;66.68;99045.41;5106464;28;20052;-74
2023/01/31 01:51:21;;;;;;;5.55;4.85;;;;;;;0.36;66.54;98630.97;5106161;28;20048;-73
2023/01/31 01:53:52;;;;;;;5.20;3.13;;;;;;;2.88;66.69;99048.13;5106415;28;20044;-73
2023/01/31 01:56:23;;;;;;;7.43;3.33;;;;;;;2.88;66.65;99071.69;5105015;28;20043;-74
2023/01/31 01:58:57;;;;;;;5.75;3.70;;;;;;;2.87;66.53;99077.81;5106037;28;20292;-73
2023/01/31 02:01:26;;;;;;;5.28;4.03;;;;;;;2.43;66.58;99026.72;5105971;28;20048;-74
2023/01/31 02:03:53;;;;;;;7.03;3.47;;;;;;;2.87;66.64;99097.00;5105725;28;20040;-73
2023/01/31 02:06:21;;;;;;;7.85;4.07;;;;;;;2.88;66.83;99088.25;5105922;28;20050;-73
2023/01/31 02:08:49;;;;;;;5.88;3.90;;;;;;;2.88;67.27;99092.63;5105613;28;20051;-73
2023/01/31 02:11:22;;;;;;;5.95;3.85;;;;;;;2.87;67.85;99096.13;5104835;28;20043;-73
2023/01/31 02:13:53;;;;;;;4.90;3.90;;;;;;;2.86;67.76;99091.81;5105920;28;20292;-73
2023/01/31 02:16:20;;;;;;;9.07;5.13;;;;;;;2.84;68.03;99091.00;5105294;28;20036;-73
2023/01/31 02:18:48;;;;;;;8.98;4.03;;;;;;;2.84;68.28;99091.00;5106122;28;20044;-74
2023/01/31 02:21:50;;;;;;;5.90;3.40;;;;;;;2.82;69.15;99101.50;5106149;28;20044;-74
2023/01/31 02:24:55;;;;;;;5.78;3.47;;;;;;;2.79;69.13;99093.72;5107706;28;20189;-74
2023/01/31 02:28:04;;;;;;;5.80;3.92;;;;;;;2.82;69.19;99111.97;5109686;28;20048;-74
2023/01/31 02:31:01;;;;;;;6.47;4.20;;;;;;;2.00;69.12;98964.28;5071058;28;20304;-73
2023/01/31 02:33:35;;;;;;;5.60;3.83;;;;;;;2.83;68.43;99104.97;5108675;28;20039;-74
2023/01/31 02:36:14;;;;;;;5.00;3.93;;;;;;;2.82;68.93;99100.63;5109873;28;20089;-74
2023/01/31 02:38:57;;;;;;;4.63;3.85;;;;;;;2.81;69.17;99091.94;5109536;28;20043;-74
2023/01/31 02:41:33;;;;;;;5.65;4.10;;;;;;;2.46;69.06;99042.34;5109705;28;20093;-74
2023/01/31 02:46:58;;;;;;;5.70;3.80;;;;;;;2.76;69.06;99106.91;5109539;28;20036;-74
2023/01/31 02:49:38;;;;;;;6.43;4.32;;;;;;;2.76;68.76;99106.91;5108450;28;20040;-73
2023/01/31 02:52:16;;;;;;;5.68;3.70;;;;;;;2.77;68.57;99095.53;5109289;28;20047;-74
2023/01/31 02:57:35;;;;;;;4.72;3.70;;;;;;;1.83;68.23;98938.59;5108239;28;20050;-74
2023/01/31 03:00:03;;;;;;;5.63;4.40;;;;;;;2.74;68.24;99102.63;5109794;28;20052;-74
2023/01/31 03:02:30;;;;;;;5.70;3.90;;;;;;;2.72;68.26;99100.03;5108485;28;20040;-74
2023/01/31 03:04:58;;;;;;;5.47;3.63;;;;;;;2.75;67.95;99106.94;5108646;28;20067;-74
2023/01/31 03:07:30;;;;;;;5.40;3.80;;;;;;;2.76;67.83;99112.13;5109255;28;20047;-74
2023/01/31 03:10:09;;;;;;;5.53;3.53;;;;;;;2.77;67.67;99121.72;5108043;28;20032;-74
2023/01/31 03:12:50;;;;;;;5.32;3.30;;;;;;;2.79;67.88;99122.53;5107989;28;20050;-74
2023/01/31 03:17:30;;;;;;;5.30;3.72;;;;;;;2.79;67.73;99121.66;5108776;28;20039;-73
2023/01/31 03:18:22;;;;;;;6.32;3.65;;;;;;;2.79;67.56;99134.75;5108745;28;20071;-73
2023/01/31 03:20:58;;;;;;;5.32;3.22;;;;;;;2.37;67.44;99077.44;5108773;28;20279;-73
2023/01/31 03:23:34;;;;;;;4.70;3.50;;;;;;;2.81;67.29;99149.50;5107781;28;20043;-73
2023/01/31 03:26:05;;;;;;;5.20;3.63;;;;;;;2.80;67.41;99145.19;5108514;28;20299;-74
2023/01/31 03:28:35;;;;;;;4.65;3.75;;;;;;;2.82;67.24;99145.13;5108470;28;20101;-74
2023/01/31 03:31:08;;;;;;;5.65;3.50;;;;;;;2.81;67.55;99151.28;5108510;28;20043;-74
2023/01/31 03:33:38;;;;;;;4.40;3.08;;;;;;;2.81;67.65;99161.75;5106692;28;20044;-73
2023/01/31 03:36:15;;;;;;;5.80;3.80;;;;;;;2.63;67.84;99131.69;5108375;28;20036;-73
2023/01/31 03:38:52;;;;;;;4.93;3.22;;;;;;;2.83;67.50;99158.19;5108356;28;20054;-74
2023/01/31 03:41:25;;;;;;;5.38;3.72;;;;;;;2.85;67.39;99166.00;5108480;28;20044;-74
2023/01/31 03:43:59;;;;;;;6.00;4.20;;;;;;;2.70;67.43;99158.56;5107666;28;20129;-73
2023/01/31 03:46:31;;;;;;;6.95;3.90;;;;;;;2.83;67.36;99157.31;5107293;28;20039;-74
2023/01/31 03:49:01;;;;;;;4.22;3.55;;;;;;;2.84;67.19;99162.53;5108352;28;20051;-73
2023/01/31 03:51:32;;;;;;;5.53;3.80;;;;;;;2.83;67.03;99160.81;5108627;28;20040;-74
2023/01/31 03:54:04;;;;;;;4.85;3.17;;;;;;;2.84;67.08;99167.75;5108113;28;20050;-74
2023/01/31 03:56:35;;;;;;;9.15;3.40;;;;;;;2.85;66.82;99160.75;5107185;28;20315;-73
2023/01/31 03:59:08;;;;;;;5.68;3.30;;;;;;;2.66;66.68;99126.38;5107113;28;20204;-73
2023/01/31 04:01:39;;;;;;;3.90;2.90;;;;;;;2.90;66.48;99168.47;5107068;28;20039;-73
2023/01/31 04:04:09;;;;;;;4.68;3.50;;;;;;;2.92;66.35;99159.69;5107543;28;20052;-74
2023/01/31 04:06:37;;;;;;;5.88;3.88;;;;;;;2.94;66.22;99181.44;5108246;28;20048;-74
2023/01/31 04:09:04;;;;;;;4.38;3.10;;;;;;;2.95;66.23;99177.94;5108324;28;20043;-73
2023/01/31 04:11:37;;;;;;;4.90;3.35;;;;;;;2.96;66.22;99184.03;5107978;28;20093;-73
2023/01/31 04:14:04;;;;;;;4.18;3.28;;;;;;;2.95;66.07;99170.06;5106833;28;20044;-73
2023/01/31 04:16:31;;;;;;;5.38;2.90;;;;;;;2.97;66.29;99180.50;5106715;28;20036;-73
2023/01/31 04:18:58;;;;;;;5.22;3.45;;;;;;;2.97;65.60;99181.38;5108071;28;20050;-73
2023/01/31 04:21:25;;;;;;;4.13;2.97;;;;;;;2.99;65.57;99176.94;5107706;28;20055;-74
2023/01/31 04:23:53;;;;;;;3.63;2.83;;;;;;;3.01;65.32;99175.16;5107232;28;20276;-73
2023/01/31 04:26:20;;;;;;;3.28;2.70;;;;;;;3.02;65.38;99179.47;5106498;28;20046;-73
2023/01/31 04:28:46;;;;;;;3.38;2.50;;;;;;;3.03;65.25;99175.09;5107958;28;20075;-74
2023/01/31 04:31:13;;;;;;;3.33;2.58;;;;;;;3.05;65.20;99191.63;5107893;28;20047;-73
2023/01/31 04:33:40;;;;;;;6.00;3.03;;;;;;;3.04;65.12;99187.28;5107720;28;20050;-73
2023/01/31 04:36:08;;;;;;;4.82;3.08;;;;;;;3.03;65.28;99183.81;5107817;28;20050;-74
2023/01/31 04:38:34;;;;;;;4.60;3.15;;;;;;;3.03;65.25;99188.19;5089795;28;20050;-74
2023/01/31 04:41:03;;;;;;;4.15;2.80;;;;;;;3.02;65.30;99181.25;5107646;28;20043;-74
2023/01/31 04:43:29;;;;;;;5.13;3.30;;;;;;;3.01;65.35;99190.00;5106253;28;20044;-77
2023/01/31 04:45:56;;;;;;;6.18;3.40;;;;;;;3.00;65.44;99186.53;5106834;28;20032;-73
2023/01/31 04:48:23;;;;;;;5.05;3.40;;;;;;;3.01;65.66;99184.75;5107290;28;20192;-73
2023/01/31 04:50:50;;;;;;;5.97;3.67;;;;;;;3.01;65.65;99177.75;5106071;28;20052;-74
2023/01/31 04:53:17;;;;;;;5.20;3.60;;;;;;;2.98;65.73;99184.84;5106935;28;20051;-73
2023/01/31 04:55:43;;;;;;;5.30;3.25;;;;;;;3.00;65.82;99169.94;5107090;28;20047;-74
2023/01/31 04:58:11;;;;;;;6.35;3.40;;;;;;;3.00;65.66;99186.53;5105904;28;20051;-73
2023/01/31 05:00:38;;;;;;;4.68;3.10;;;;;;;3.00;65.75;99183.91;5107022;28;20199;-74
2023/01/31 05:03:05;;;;;;;4.35;2.97;;;;;;;2.99;65.72;99187.41;5105654;28;20239;-74
2023/01/31 05:05:32;;;;;;;4.28;3.35;;;;;;;3.01;65.67;99185.63;5106574;28;20089;-74
2023/01/31 05:08:00;;;;;;;4.95;3.20;;;;;;;3.00;65.61;99173.44;5106506;28;20315;-74
2023/01/31 05:10:27;;;;;;;4.00;3.05;;;;;;;2.98;65.70;99184.84;5106581;28;20058;-73
2023/01/31 05:12:54;;;;;;;4.80;3.20;;;;;;;3.00;65.67;99190.91;5106025;28;20062;-74
2023/01/31 05:15:22;;;;;;;4.85;3.65;;;;;;;3.01;65.49;99195.22;5105654;28;20036;-74
2023/01/31 05:17:53;;;;;;;4.43;3.13;;;;;;;3.00;65.51;99191.75;5106732;28;20334;-74
2023/01/31 05:20:20;;;;;;;5.30;3.28;;;;;;;3.00;65.22;99198.75;5106554;28;20082;-73
2023/01/31 05:22:48;;;;;;;5.00;3.70;;;;;;;3.00;65.46;99191.75;5105534;28;20050;-73
2023/01/31 05:25:15;;;;;;;7.10;3.53;;;;;;;2.98;65.48;99196.19;5106791;28;20048;-73
2023/01/31 05:27:43;;;;;;;5.00;3.00;;;;;;;2.93;65.52;99184.09;5106511;28;20040;-73
2023/01/31 05:30:11;;;;;;;6.65;3.13;;;;;;;2.90;65.36;99166.72;5106792;28;20055;-73
2023/01/31 05:32:40;;;;;;;5.93;2.85;;;;;;;2.87;65.02;99179.91;5106225;28;20061;-74
2023/01/31 05:35:07;;;;;;;3.70;2.53;;;;;;;2.85;64.90;99187.78;5106427;28;20107;-74
2023/01/31 05:37:34;;;;;;;3.83;2.47;;;;;;;2.86;64.68;99199.13;5105239;28;20039;-74
2023/01/31 05:40:01;;;;;;;3.88;2.40;;;;;;;2.87;64.83;99203.44;5106348;28;20048;-74
2023/01/31 05:42:27;;;;;;;4.60;3.03;;;;;;;2.88;64.35;99206.03;5105185;28;20040;-74
2023/01/31 05:44:54;;;;;;;3.78;2.42;;;;;;;2.88;63.76;99215.66;5105921;28;20039;-73
2023/01/31 05:47:22;;;;;;;5.63;2.30;;;;;;;2.89;63.60;99214.75;5106145;28;20187;-74
2023/01/31 05:49:50;;;;;;;6.97;2.97;;;;;;;2.92;63.25;99219.03;5105100;28;20044;-73
2023/01/31 05:52:17;;;;;;;3.63;2.13;;;;;;;2.81;63.19;99212.31;5105963;28;20047;-74
2023/01/31 05:54:44;;;;;;;4.93;2.78;;;;;;;2.96;63.27;99232.00;5106370;28;20044;-74
2023/01/31 05:57:11;;;;;;;5.97;2.80;;;;;;;2.97;63.35;99240.72;5104290;28;20036;-73
2023/01/31 05:59:38;;;;;;;4.90;2.10;;;;;;;2.96;63.25;99239.00;5105781;28;20043;-74
2023/01/31 06:02:05;;;;;;;4.38;2.50;;;;;;;2.98;63.08;99247.69;5105695;28;20054;-73
2023/01/31 06:04:32;;;;;;;6.35;2.70;;;;;;;2.98;62.97;99250.28;5105578;28;20070;-74
2023/01/31 06:07:00;;;;;;;4.63;2.85;;;;;;;2.98;63.01;99247.69;5104581;28;20050;-74
2023/01/31 06:09:27;;;;;;;4.45;2.53;;;;;;;2.99;63.04;99265.09;5104844;28;20043;-73
2023/01/31 06:11:53;;;;;;;4.00;2.97;;;;;;;3.00;63.05;99264.19;5105860;28;20048;-74
2023/01/31 06:14:20;;;;;;;4.93;2.58;;;;;;;3.00;63.09;99274.69;5105539;28;20040;-74
2023/01/31 06:16:47;;;;;;;3.60;2.15;;;;;;;3.00;63.16;99288.63;5105432;28;20092;-74
2023/01/31 06:19:14;;;;;;;5.80;2.58;;;;;;;3.02;63.06;99291.22;5105645;28;20238;-74
2023/01/31 06:21:40;;;;;;;7.30;2.65;;;;;;;3.06;62.89;99287.59;5105477;28;20047;-73
2023/01/31 06:24:09;;;;;;;5.13;2.40;;;;;;;3.07;63.14;99316.38;5105926;28;20068;-74
2023/01/31 06:26:35;;;;;;;3.85;2.97;;;;;;;3.09;63.36;99313.72;5106024;28;20046;-74
2023/01/31 06:29:02;;;;;;;4.63;3.30;;;;;;;3.10;63.55;99316.28;5104708;28;20296;-74
2023/01/31 06:31:29;;;;;;;4.75;3.28;;;;;;;3.09;63.68;99318.94;5105465;28;20062;-74
2023/01/31 06:33:56;;;;;;;4.70;3.53;;;;;;;3.09;63.72;99321.56;5104763;28;20089;-74
2023/01/31 06:36:22;;;;;;;6.03;3.65;;;;;;;3.09;63.64;99322.44;5105322;28;20059;-73
2023/01/31 06:38:50;;;;;;;4.88;3.40;;;;;;;3.11;63.80;99330.25;5104297;28;20300;-73
2023/01/31 06:41:19;;;;;;;5.65;3.50;;;;;;;2.70;63.66;99258.00;5105174;28;20090;-73
2023/01/31 06:43:46;;;;;;;6.57;3.63;;;;;;;3.10;64.02;99336.38;5105293;28;20047;-74
2023/01/31 06:46:13;;;;;;;6.28;3.50;;;;;;;3.10;64.03;99339.00;5105257;28;20086;-74
2023/01/31 06:48:39;;;;;;;6.72;3.60;;;;;;;3.09;63.94;99340.75;5104460;28;20036;-74
2023/01/31 06:51:06;;;;;;;5.10;3.20;;;;;;;3.10;64.01;99346.84;5104413;28;20300;-74
2023/01/31 06:53:33;;;;;;;6.05;3.50;;;;;;;3.10;63.99;99357.34;5105521;28;20051;-73
2023/01/31 06:56:00;;;;;;;6.60;3.33;;;;;;;3.10;63.96;99365.19;5104308;28;20066;-73
2023/01/31 06:58:28;;;;;;;5.63;3.50;;;;;;;3.10;63.96;99357.34;5105741;28;20044;-74
2023/01/31 07:00:54;;;;;;;6.22;3.67;;;;;;;3.09;64.01;99353.84;5104314;28;20086;-74
2023/01/31 07:03:21;;;;;;;5.85;3.30;;;;;;;3.10;64.05;99367.81;5105189;28;20326;-74
2023/01/31 07:05:48;;;;;;;5.22;3.30;;;;;;;3.11;63.97;99377.38;5105265;28;20308;-74
2023/01/31 07:08:15;;;;;;;5.65;3.20;;;;;;;3.09;64.03;99377.41;5107041;28;20054;-73
2023/01/31 07:10:42;;;;;;;6.75;3.30;;;;;;;3.09;64.04;99390.50;5107848;28;20044;-73
2023/01/31 07:13:08;;;;;;;7.57;3.05;;;;;;;3.08;63.95;99380.06;5109392;28;20052;-74
2023/01/31 07:15:36;;;;;;;4.75;3.20;;;;;;;3.09;63.99;99387.03;5109035;28;20051;-74
2023/01/31 07:18:05;;;;;;;6.80;4.28;;;;;;;3.10;63.68;99383.53;5108686;28;20043;-73
2023/01/31 07:20:32;;;;;;;4.70;3.25;;;;;;;3.11;63.87;99391.34;5108348;28;20184;-73
2023/01/31 07:23:00;;;;;;;4.90;3.03;;;;;;;3.01;63.53;99368.03;5108318;28;20081;-73
2023/01/31 07:25:29;;;;;;;4.70;2.60;;;;;;;3.19;63.62;99412.97;5108819;28;20040;-74
2023/01/31 07:27:56;;;;;;;5.13;3.80;;;;;;;3.23;63.45;99403.28;5107513;28;20040;-74
2023/01/31 07:30:23;;;;;;;5.13;3.00;;;;;;;3.24;63.24;99394.50;5107635;28;20040;-74
2023/01/31 07:32:51;;;;;;;5.95;3.28;;;;;;;3.24;63.06;99407.59;5108929;28;20054;-73
2023/01/31 07:35:18;;;;;;;5.40;4.07;;;;;;;3.27;62.92;99406.69;5108608;28;20322;-73
2023/01/31 07:37:45;;;;;;;7.20;3.10;;;;;;;3.31;62.92;99424.03;5109247;28;20052;-74
2023/01/31 07:40:14;;;;;;;4.85;2.83;;;;;;;3.32;62.98;99418.75;5108428;28;20044;-73
2023/01/31 07:42:41;;;;;;;4.63;3.38;;;;;;;3.33;62.75;99415.25;5108839;28;20050;-74
2023/01/31 07:45:11;;;;;;;3.63;2.92;;;;;;;3.36;62.59;99422.16;5108476;28;20040;-74
2023/01/31 07:47:38;;;;;;;6.68;3.38;;;;;;;3.36;62.75;99428.25;5107708;28;20043;-74
2023/01/31 07:50:07;;;;;;;6.05;3.92;;;;;;;3.39;62.35;99420.31;5107191;28;20056;-74
2023/01/31 07:52:34;;;;;;;3.97;2.75;;;;;;;3.44;62.45;99428.94;5108285;28;20070;-74
2023/01/31 07:55:01;;;;;;;4.47;3.70;;;;;;;3.53;62.10;99433.94;5108502;28;20040;-74
2023/01/31 07:57:31;;;;;;;5.68;2.90;;;;;;;3.64;61.07;99435.44;5107130;28;20032;-73
2023/01/31 07:59:57;;;;;;;6.65;3.38;;;;;;;3.56;60.88;99416.41;5108385;28;20158;-73
2023/01/31 08:05:10;;;;;;;4.18;2.97;;;;;;;3.78;60.04;99425.44;5106617;28;20044;-74
2023/01/31 08:07:37;;;;;;;5.90;2.70;;;;;;;3.82;59.84;99429.69;5108342;28;20227;-73
2023/01/31 08:10:04;;;;;;;3.67;2.65;;;;;;;3.86;59.17;99431.34;5107987;28;20311;-74
2023/01/31 08:12:31;;;;;;;3.22;2.03;;;;;;;3.89;59.52;99426.00;5107684;28;20055;-74
2023/01/31 08:14:58;;;;;;;3.92;2.22;;;;;;;3.92;58.99;99441.66;5107986;28;20288;-73
2023/01/31 08:17:25;;;;;;;5.65;2.95;;;;;;;3.94;59.19;99431.13;5107786;28;20044;-73
2023/01/31 08:19:52;;;;;;;5.18;2.75;;;;;;;3.93;59.02;99432.91;5106951;28;20093;-74
2023/01/31 08:22:20;;;;;;;3.47;2.40;;;;;;;3.95;58.35;99435.47;5106619;28;20199;-73
2023/01/31 08:24:49;;;;;;;4.75;2.70;;;;;;;4.05;58.41;99440.44;5107413;28;20044;-76
2023/01/31 08:27:15;;;;;;;6.38;2.72;;;;;;;4.16;57.90;99454.09;5106399;28;20047;-74
2023/01/31 08:29:42;;;;;;;4.97;2.63;;;;;;;4.18;56.89;99443.56;5107976;28;20040;-73
2023/01/31 08:32:09;;;;;;;4.00;2.50;;;;;;;4.23;57.37;99461.84;5106554;28;20032;-73
2023/01/31 08:34:36;;;;;;;8.30;2.20;;;;;;;4.27;56.88;99468.72;5107312;28;20040;-74
2023/01/31 08:37:02;;;;;;;3.97;2.40;;;;;;;4.27;57.13;99456.47;5107191;28;20048;-73
2023/01/31 08:39:30;;;;;;;4.88;3.45;;;;;;;4.25;56.89;99462.66;5107122;28;20044;-73
2023/01/31 08:41:57;;;;;;;4.55;2.60;;;;;;;4.25;57.21;99466.16;5107654;28;20056;-73
2023/01/31 08:44:24;;;;;;;5.00;2.70;;;;;;;4.25;56.80;99462.66;5106199;28;20203;-73
2023/01/31 08:46:51;;;;;;;5.82;2.60;;;;;;;4.23;57.00;99486.31;5107650;28;20109;-73
2023/01/31 08:49:18;;;;;;;6.35;2.55;;;;;;;4.24;57.34;99479.31;5107200;28;20051;-73
2023/01/31 08:51:44;;;;;;;6.22;3.13;;;;;;;4.25;57.34;99489.75;5107150;28;20346;-73
2023/01/31 08:54:11;;;;;;;4.18;2.30;;;;;;;4.25;56.83;99489.75;5106697;28;20052;-73
2023/01/31 08:56:39;;;;;;;5.40;2.42;;;;;;;4.25;56.84;99510.75;5107027;28;20048;-73
2023/01/31 08:59:06;;;;;;;3.72;2.20;;;;;;;4.23;56.92;99501.19;5106729;28;20050;-73
2023/01/31 09:01:34;;;;;;;4.72;2.83;;;;;;;4.24;56.67;99505.53;5107373;28;20040;-73
2023/01/31 09:04:01;;;;;;;8.02;3.70;;;;;;;4.23;57.55;99509.06;5106862;28;20047;-73
2023/01/31 09:06:28;;;;;;;5.93;3.13;;;;;;;4.22;57.99;99502.09;5105851;28;20129;-74
2023/01/31 09:08:57;;;;;;;8.55;3.85;;;;;;;4.20;58.72;99509.13;5106916;28;20203;-72
2023/01/31 09:11:23;;;;;;;7.50;3.20;;;;;;;4.16;59.26;99518.81;5107077;28;20288;-73
2023/01/31 09:13:52;;;;;;;7.07;4.15;;;;;;;4.11;59.98;99499.72;5106648;28;20044;-73
2023/01/31 09:16:19;;;;;;;10.80;4.65;;;;;;;4.08;60.21;99513.78;5105400;28;20059;-73
2023/01/31 09:18:47;;;;;;;7.00;3.90;;;;;;;3.80;60.67;99457.72;5105562;28;20063;-73
2023/01/31 09:21:16;;;;;;;5.63;3.90;;;;;;;4.05;60.90;99526.13;5106705;28;20274;-73
2023/01/31 09:23:43;;;;;;;5.28;4.00;;;;;;;4.03;61.07;99510.41;5106732;28;20044;-73
2023/01/31 09:26:11;;;;;;;6.72;4.03;;;;;;;4.01;61.03;99532.34;5105395;28;20040;-73
2023/01/31 09:28:41;;;;;;;8.45;3.60;;;;;;;4.00;61.17;99533.25;5106372;28;20196;-73
2023/01/31 09:31:11;;;;;;;7.50;4.22;;;;;;;3.99;61.32;99524.50;5104564;28;20040;-73
2023/01/31 09:33:38;;;;;;;7.78;4.65;;;;;;;3.59;61.23;99474.84;5105252;28;20043;-73
2023/01/31 09:36:07;;;;;;;7.38;4.60;;;;;;;3.94;61.17;99534.25;5106652;28;20041;-72
2023/01/31 09:38:35;;;;;;;4.78;3.80;;;;;;;3.95;61.27;99532.50;5106619;28;20047;-73
2023/01/31 09:41:18;;;;;;;6.50;4.28;;;;;;;3.40;61.05;99450.88;5106050;28;20048;-73
2023/01/31 09:43:52;;;;;;;5.88;3.72;;;;;;;3.93;61.43;99527.28;5105941;28;20035;-73
2023/01/31 09:46:26;;;;;;;6.68;4.05;;;;;;;3.91;61.29;99557.94;5106481;28;20062;-73
2023/01/31 09:48:56;;;;;;;6.35;4.45;;;;;;;3.88;61.33;99544.03;5106459;28;20043;-73
2023/01/31 09:51:23;;;;;;;11.90;5.20;;;;;;;3.63;61.36;99517.56;5105766;28;20052;-73
2023/01/31 09:53:50;;;;;;;6.72;3.83;;;;;;;3.86;61.47;99544.09;5106115;28;20053;-73
2023/01/31 09:56:24;;;;;;;6.45;4.22;;;;;;;3.84;61.26;99554.59;5105972;28;20048;-73
2023/01/31 09:58:59;;;;;;;5.53;4.07;;;;;;;3.82;61.00;99547.69;5106064;28;20089;-73
2023/01/31 10:01:30;;;;;;;;;;;;;;;3.78;60.65;99540.78;5106208;28;20089;-73
2023/01/31 10:04:13;;;;;;;5.53;3.65;;;;;;;3.77;61.00;99525.97;5105845;28;19916;-73
2023/01/31 10:06:46;;;;;;;5.88;3.85;;;;;;;3.79;61.28;99526.78;5106232;28;20089;-73
2023/01/31 10:09:19;;;;;;;8.88;4.03;;;;;;;3.81;61.29;99511.88;5104813;28;20061;-73
2023/01/31 10:11:51;;;;;;;5.55;3.95;;;;;;;3.83;61.11;99533.66;5105553;28;20054;-73
2023/01/31 10:14:26;;;;;;;6.65;3.65;;;;;;;3.86;60.86;99530.97;5104631;28;20074;-73
2023/01/31 10:17:06;;;;;;;7.38;4.05;;;;;;;3.87;60.76;99539.69;5104867;28;20040;-72
2023/01/31 10:19:40;;;;;;;6.97;4.25;;;;;;;3.87;60.91;99516.97;5106057;28;20048;-73
2023/01/31 10:22:12;;;;;;;7.10;4.13;;;;;;;3.88;60.96;99518.69;5106053;28;20036;-73
2023/01/31 10:24:44;;;;;;;7.38;4.25;;;;;;;3.77;60.89;99516.34;5104528;28;20464;-73
2023/01/31 10:27:17;;;;;;;7.57;3.65;;;;;;;3.89;60.78;99517.78;5104569;28;20050;-73
2023/01/31 10:29:47;;;;;;;5.63;3.47;;;;;;;3.94;60.83;99522.91;5104593;28;20047;-73
2023/01/31 10:32:21;;;;;;;5.82;3.85;;;;;;;3.93;60.57;99501.06;5105395;28;20040;-73
2023/01/31 10:34:53;;;;;;;11.07;4.07;;;;;;;3.93;60.67;99514.19;5105978;28;20318;-73
2023/01/31 10:37:27;;;;;;;7.53;4.00;;;;;;;3.94;60.79;99518.53;5105866;28;20051;-73
2023/01/31 10:39:58;;;;;;;7.30;3.72;;;;;;;3.94;60.81;99523.78;5104491;28;20303;-73
2023/01/31 10:42:36;;;;;;;5.90;4.30;;;;;;;3.94;60.35;99529.03;5106150;28;20032;-73
2023/01/31 10:45:15;;;;;;;6.88;3.92;;;;;;;3.92;60.36;99511.59;5109347;28;20052;-73
2023/01/31 10:47:50;;;;;;;6.03;3.40;;;;;;;3.94;60.25;99521.16;5109827;28;20299;-73
2023/01/31 10:50:19;;;;;;;5.70;3.72;;;;;;;3.96;60.23;99511.47;5108745;28;20156;-73
2023/01/31 10:52:57;;;;;;;5.85;3.47;;;;;;;3.95;60.44;99512.38;5109252;28;20058;-73
2023/01/31 10:55:43;;;;;;;8.00;4.00;;;;;;;3.96;59.82;99521.13;5109212;28;20051;-73
2023/01/31 10:58:14;;;;;;;7.55;4.05;;;;;;;3.98;60.22;99496.56;5109627;28;20032;-72
2023/01/31 11:00:41;;;;;;;6.00;3.20;;;;;;;4.04;60.36;99490.31;5109365;28;20310;-73
2023/01/31 11:03:12;;;;;;;7.47;3.67;;;;;;;4.07;59.86;99498.09;5107856;28;20082;-73
2023/01/31 11:05:45;;;;;;;6.75;5.07;;;;;;;4.11;59.68;99497.97;5109554;28;20039;-73
2023/01/31 11:08:29;;;;;;;6.80;3.60;;;;;;;4.16;59.22;99496.09;5109055;28;20055;-73
2023/01/31 11:10:58;;;;;;;4.28;3.40;;;;;;;4.23;59.64;99495.94;5107952;28;20115;-73
2023/01/31 11:13:25;;;;;;;4.93;3.30;;;;;;;4.28;59.37;99481.81;5108645;28;20048;-73
2023/01/31 11:15:54;;;;;;;6.47;3.40;;;;;;;4.31;59.04;99484.34;5107934;28;20043;-73
2023/01/31 11:18:32;;;;;;;7.03;2.95;;;;;;;4.39;57.79;99484.13;5108812;28;20051;-73
2023/01/31 11:21:01;;;;;;;7.57;3.88;;;;;;;4.46;58.31;99478.66;5108618;28;20051;-73
2023/01/31 11:23:31;;;;;;;7.28;3.47;;;;;;;4.49;57.58;99472.47;5108809;28;20043;-73
2023/01/31 11:25:59;;;;;;;9.82;3.85;;;;;;;4.54;57.89;99475.81;5109164;28;20044;-73
2023/01/31 11:28:34;;;;;;;5.32;3.47;;;;;;;4.61;57.04;99469.50;5107677;28;20059;-73
2023/01/31 11:31:03;;;;;;;7.25;3.00;;;;;;;4.72;56.73;99462.16;5108528;28;20040;-73
2023/01/31 11:33:55;;;;;;;5.05;3.33;;;;;;;4.78;54.75;99464.59;5108331;28;20111;-73
2023/01/31 11:36:23;;;;;;;5.45;3.42;;;;;;;4.79;56.48;99462.84;5108583;28;20191;-73
2023/01/31 11:38:50;;;;;;;5.38;3.20;;;;;;;4.85;56.62;99470.53;5108218;28;20051;-73
2023/01/31 11:41:32;;;;;;;4.63;3.15;;;;;;;4.97;54.75;99474.59;5108240;28;20044;-72
2023/01/31 11:44:14;;;;;;;5.30;3.15;;;;;;;5.08;55.03;99485.63;5107281;28;20048;-73
2023/01/31 11:46:48;;;;;;;8.63;3.10;;;;;;;5.22;55.42;99470.28;5108439;28;20162;-72
2023/01/31 11:49:27;;;;;;;6.13;3.83;;;;;;;5.39;55.41;99473.22;5108093;28;20036;-73
2023/01/31 11:51:55;;;;;;;4.53;2.90;;;;;;;5.44;55.94;99463.44;5108200;28;20043;-73
2023/01/31 11:54:26;;;;;;;7.43;3.65;;;;;;;5.47;55.50;99469.50;5106024;28;20177;-73
2023/01/31 11:56:55;;;;;;;5.20;3.25;;;;;;;5.44;56.11;99470.47;5108032;28;20036;-74
2023/01/31 11:59:26;;;;;;;3.85;2.85;;;;;;;5.36;56.19;99464.59;5108505;28;20039;-74
2023/01/31 12:01:57;;;;;;;7.07;3.05;;;;;;;5.33;55.72;99459.44;5106779;28;20046;-74